createdAt,value
2022-08-31T00:00:29.724Z,100425.47
2022-08-31T00:03:15.303Z,100431.16
2022-08-31T00:05:42.228Z,100433.28
2022-08-31T00:08:09.190Z,100432.41
2022-08-31T00:10:36.968Z,100429.09
2022-08-31T00:13:09.707Z,100428.78
2022-08-31T00:15:36.455Z,100421.94
2022-08-31T00:18:04.892Z,100422.63
2022-08-31T00:20:33.969Z,100422.56
2022-08-31T00:23:06.061Z,100417.44
2022-08-31T00:25:34.410Z,100416.63
2022-08-31T00:28:01.791Z,100428.66
2022-08-31T00:30:28.645Z,100420.91
2022-08-31T00:32:58.191Z,100423.31
2022-08-31T00:35:29.574Z,100423.59
2022-08-31T00:37:57.012Z,100428.44
2022-08-31T00:40:24.645Z,100422.72
2022-08-31T00:42:52.090Z,100418.97
2022-08-31T00:45:19.259Z,100432.78
2022-08-31T00:47:46.092Z,100434.94
2022-08-31T00:50:16.042Z,100439.12
2022-08-31T00:52:47.366Z,100431.41
2022-08-31T00:55:29.938Z,100434.06
2022-08-31T00:58:00.151Z,100426.97
2022-08-31T01:00:28.549Z,100430.16
2022-08-31T01:02:57.311Z,100432.91
2022-08-31T01:05:24.918Z,100428.78
2022-08-31T01:07:52.839Z,100438.00
2022-08-31T01:10:22.440Z,100435.75
2022-08-31T01:12:52.636Z,100434.41
2022-08-31T01:15:20.087Z,100429.03
2022-08-31T01:17:49.537Z,100430.47
2022-08-31T01:20:16.280Z,100433.63
2022-08-31T01:22:52.182Z,100436.34
2022-08-31T01:25:20.150Z,100424.84
2022-08-31T01:27:47.475Z,100418.44
2022-08-31T01:30:24.012Z,100418.94
2022-08-31T01:32:50.882Z,100420.31
2022-08-31T01:35:17.912Z,100417.91
2022-08-31T01:37:45.101Z,100428.69
2022-08-31T01:40:12.770Z,100415.69
2022-08-31T01:42:39.492Z,100422.00
2022-08-31T01:45:08.101Z,100423.97
2022-08-31T01:47:35.120Z,100427.16
2022-08-31T01:50:01.994Z,100423.63
2022-08-31T01:52:28.791Z,100420.41
2022-08-31T01:54:56.666Z,100414.94
2022-08-31T01:57:24.464Z,100417.88
2022-08-31T02:00:04.688Z,100420.72
2022-08-31T02:02:32.080Z,100425.47
2022-08-31T02:04:59.259Z,100411.94
2022-08-31T02:07:26.646Z,100414.47
2022-08-31T02:09:54.931Z,100419.22
2022-08-31T02:12:21.800Z,100408.00
2022-08-31T02:14:48.756Z,100410.37
2022-08-31T02:17:15.701Z,100405.66
2022-08-31T02:19:42.450Z,100398.66
2022-08-31T02:22:09.298Z,100400.72
2022-08-31T02:24:36.174Z,100399.56
2022-08-31T02:27:03.031Z,100397.31
2022-08-31T02:29:29.710Z,100396.09
2022-08-31T02:31:58.621Z,100401.44
2022-08-31T02:34:25.509Z,100396.78
2022-08-31T02:36:52.225Z,100400.97
2022-08-31T02:39:18.968Z,100396.47
2022-08-31T02:41:45.985Z,100391.12
2022-08-31T02:44:12.735Z,100386.91
2022-08-31T02:46:39.532Z,100392.94
2022-08-31T02:49:06.397Z,100387.47
2022-08-31T02:51:33.100Z,100395.22
2022-08-31T02:53:59.950Z,100396.44
2022-08-31T02:56:26.729Z,100396.25
2022-08-31T02:58:55.097Z,100398.38
2022-08-31T03:01:26.660Z,100391.12
2022-08-31T03:03:53.619Z,100394.28
2022-08-31T03:06:21.207Z,100391.44
2022-08-31T03:08:48.127Z,100391.38
2022-08-31T03:11:16.223Z,100397.13
2022-08-31T03:13:43.136Z,100407.41
2022-08-31T03:16:11.901Z,100399.97
2022-08-31T03:18:38.698Z,100406.06
2022-08-31T03:21:05.568Z,100412.41
2022-08-31T03:23:32.371Z,100411.91
2022-08-31T03:25:59.429Z,100403.25
2022-08-31T03:28:26.209Z,100413.53
2022-08-31T03:30:52.940Z,100411.69
2022-08-31T03:33:19.803Z,100419.09
2022-08-31T03:35:46.620Z,100420.03
2022-08-31T03:38:14.184Z,100421.25
2022-08-31T03:40:42.050Z,100420.59
2022-08-31T03:43:11.497Z,100417.50
2022-08-31T03:45:41.941Z,100423.34
2022-08-31T03:48:12.560Z,100425.47
2022-08-31T03:50:40.825Z,100420.41
2022-08-31T03:53:08.313Z,100421.84
2022-08-31T03:55:37.157Z,100418.19
2022-08-31T03:58:04.846Z,100414.84
2022-08-31T04:00:33.481Z,100416.06
2022-08-31T04:03:01.860Z,100411.53
2022-08-31T04:05:30.841Z,100417.53
2022-08-31T04:07:57.783Z,100415.84
2022-08-31T04:10:24.663Z,100417.00
2022-08-31T04:12:51.756Z,100419.66
2022-08-31T04:15:19.083Z,100425.00
2022-08-31T04:17:46.915Z,100419.66
2022-08-31T04:20:14.981Z,100430.69
2022-08-31T04:22:42.128Z,100432.06
2022-08-31T04:25:10.594Z,100437.50
2022-08-31T04:27:40.729Z,100441.13
2022-08-31T04:30:09.291Z,100431.62
2022-08-31T04:32:36.217Z,100436.56
2022-08-31T04:35:04.075Z,100427.25
2022-08-31T04:37:31.203Z,100426.38
2022-08-31T04:39:59.308Z,100415.22
2022-08-31T04:42:26.564Z,100416.59
2022-08-31T04:44:53.433Z,100420.75
2022-08-31T04:47:20.532Z,100423.44
2022-08-31T04:49:48.242Z,100425.16
2022-08-31T04:52:15.061Z,100432.16
2022-08-31T04:54:42.126Z,100430.47
2022-08-31T04:57:08.797Z,100432.00
2022-08-31T04:59:35.534Z,100445.16
2022-08-31T05:02:04.199Z,100437.56
2022-08-31T05:04:32.011Z,100438.16
2022-08-31T05:06:59.119Z,100435.34
2022-08-31T05:09:26.193Z,100430.78
2022-08-31T05:11:56.297Z,100435.28
2022-08-31T05:14:24.219Z,100422.91
2022-08-31T05:16:52.100Z,100428.75
2022-08-31T05:19:20.373Z,100422.38
2022-08-31T05:21:47.456Z,100419.03
2022-08-31T05:24:18.284Z,100424.66
2022-08-31T05:26:48.420Z,100427.78
2022-08-31T05:29:17.015Z,100427.47
2022-08-31T05:31:47.076Z,100426.28
2022-08-31T05:34:17.804Z,100425.50
2022-08-31T05:36:46.362Z,100425.50
2022-08-31T05:39:13.977Z,100429.91
2022-08-31T05:41:42.688Z,100427.69
2022-08-31T05:44:10.217Z,100419.06
2022-08-31T05:46:37.478Z,100416.56
2022-08-31T05:49:06.886Z,100413.00
2022-08-31T05:51:37.871Z,100408.50
2022-08-31T05:54:06.654Z,100412.16
2022-08-31T05:56:34.649Z,100426.31
2022-08-31T05:59:01.866Z,100421.06
2022-08-31T06:01:38.484Z,100412.88
2022-08-31T06:04:06.914Z,100413.00
2022-08-31T06:06:34.383Z,100407.31
2022-08-31T06:09:01.127Z,100403.78
2022-08-31T06:11:29.935Z,100406.09
2022-08-31T06:13:59.031Z,100404.66
2022-08-31T06:16:27.220Z,100407.94
2022-08-31T06:18:55.799Z,100412.34
2022-08-31T06:21:25.982Z,100408.19
2022-08-31T06:23:55.156Z,100403.91
2022-08-31T06:26:23.833Z,100402.63
2022-08-31T06:28:53.315Z,100403.00
2022-08-31T06:31:26.783Z,100403.37
2022-08-31T06:33:55.219Z,100403.03
2022-08-31T06:36:23.884Z,100392.03
2022-08-31T06:38:51.716Z,100397.66
2022-08-31T06:41:24.862Z,100398.66
2022-08-31T06:43:51.773Z,100401.25
2022-08-31T06:46:21.024Z,100400.44
2022-08-31T06:48:48.495Z,100392.16
2022-08-31T06:51:15.227Z,100394.41
2022-08-31T06:53:45.374Z,100393.06
2022-08-31T06:56:21.332Z,100391.62
2022-08-31T06:58:54.128Z,100391.53
2022-08-31T07:01:35.222Z,100390.81
2022-08-31T07:04:07.755Z,100394.53
2022-08-31T07:06:37.055Z,100392.78
2022-08-31T07:09:07.124Z,100391.94
2022-08-31T07:11:36.951Z,100391.94
2022-08-31T07:14:07.459Z,100386.34
2022-08-31T07:16:34.406Z,100391.03
2022-08-31T07:19:04.354Z,100387.44
2022-08-31T07:21:34.242Z,100393.59
2022-08-31T07:24:03.585Z,100384.09
2022-08-31T07:26:36.491Z,100380.34
2022-08-31T07:29:06.205Z,100378.94
2022-08-31T07:31:44.092Z,100382.91
2022-08-31T07:34:12.256Z,100382.06
2022-08-31T07:36:59.662Z,100377.22
2022-08-31T07:39:46.441Z,100382.13
2022-08-31T07:42:18.276Z,100376.66
2022-08-31T07:44:53.415Z,100378.41
2022-08-31T07:47:22.529Z,100379.75
2022-08-31T07:49:53.914Z,100374.47
2022-08-31T07:52:24.288Z,100377.03
2022-08-31T07:54:53.146Z,100377.22
2022-08-31T07:57:22.106Z,100365.66
2022-08-31T07:59:54.835Z,100372.59
2022-08-31T08:02:23.729Z,100377.47
2022-08-31T08:04:53.493Z,100378.53
2022-08-31T08:07:21.457Z,100371.22
2022-08-31T08:09:48.455Z,100370.56
2022-08-31T08:12:15.390Z,100377.22
2022-08-31T08:14:42.265Z,100371.94
2022-08-31T08:17:09.410Z,100370.72
2022-08-31T08:19:36.268Z,100362.66
2022-08-31T08:22:03.895Z,100365.09
2022-08-31T08:24:32.717Z,100365.75
2022-08-31T08:27:00.148Z,100363.16
2022-08-31T08:29:29.968Z,100366.13
2022-08-31T08:32:00.617Z,100360.31
2022-08-31T08:34:32.360Z,100362.34
2022-08-31T08:36:59.837Z,100353.47
2022-08-31T08:39:27.421Z,100354.47
2022-08-31T08:41:58.034Z,100358.47
2022-08-31T08:44:28.862Z,100355.09
2022-08-31T08:46:59.062Z,100342.53
2022-08-31T08:49:28.731Z,100343.25
2022-08-31T08:52:12.033Z,100344.25
2022-08-31T08:54:44.025Z,100347.62
2022-08-31T08:57:15.947Z,100340.72
2022-08-31T08:59:45.063Z,100343.75
2022-08-31T09:02:15.333Z,100344.91
2022-08-31T09:05:19.401Z,100338.28
2022-08-31T09:08:18.250Z,100336.13
2022-08-31T09:10:50.932Z,100325.56
2022-08-31T09:13:31.161Z,100327.41
2022-08-31T09:16:10.546Z,100323.94
2022-08-31T09:18:57.777Z,100331.59
2022-08-31T09:21:31.339Z,100329.31
2022-08-31T09:24:03.941Z,100327.81
2022-08-31T09:26:35.858Z,100320.69
2022-08-31T09:29:14.106Z,100311.91
2022-08-31T09:31:42.617Z,100314.78
2022-08-31T09:34:25.615Z,100314.81
2022-08-31T09:36:57.825Z,100312.53
2022-08-31T09:39:36.886Z,100312.94
2022-08-31T09:42:14.787Z,100306.31
2022-08-31T09:44:43.094Z,100300.81
2022-08-31T09:47:29.393Z,100308.37
2022-08-31T09:49:58.207Z,100306.31
2022-08-31T09:52:48.027Z,100294.22
2022-08-31T09:55:24.992Z,100301.31
2022-08-31T09:57:59.366Z,100285.88
2022-08-31T10:00:41.508Z,100283.22
2022-08-31T10:03:13.805Z,100282.03
2022-08-31T10:05:43.768Z,100273.12
2022-08-31T10:08:58.266Z,100269.25
2022-08-31T10:11:31.026Z,100274.31
2022-08-31T10:14:04.720Z,100277.66
2022-08-31T10:17:00.535Z,100268.28
2022-08-31T10:19:42.426Z,100268.91
2022-08-31T10:22:28.316Z,100264.72
2022-08-31T10:25:12.104Z,100265.34
2022-08-31T10:27:45.326Z,100269.75
2022-08-31T10:30:19.554Z,100266.97
2022-08-31T10:33:11.922Z,100270.00
2022-08-31T10:35:42.960Z,100259.16
2022-08-31T10:38:26.447Z,100259.91
2022-08-31T10:41:33.501Z,100255.69
2022-08-31T10:44:17.212Z,100264.37
2022-08-31T10:46:45.774Z,100255.41
2022-08-31T10:49:12.757Z,100256.56
2022-08-31T10:51:42.573Z,100245.25
2022-08-31T10:54:37.362Z,100235.88
2022-08-31T10:57:33.522Z,100230.41
2022-08-31T11:00:09.062Z,100226.78
2022-08-31T11:03:05.116Z,100230.87
2022-08-31T11:05:58.292Z,100224.97
2022-08-31T11:09:06.287Z,100221.28
2022-08-31T11:11:42.482Z,100217.03
2022-08-31T11:14:32.642Z,100211.09
2022-08-31T11:17:19.396Z,100201.28
2022-08-31T11:20:20.413Z,100199.25
2022-08-31T11:23:06.394Z,100204.47
2022-08-31T11:25:52.067Z,100205.12
2022-08-31T11:28:34.794Z,100198.12
2022-08-31T11:31:20.477Z,100196.41
2022-08-31T11:34:14.614Z,100199.63
2022-08-31T11:36:51.966Z,100204.62
2022-08-31T11:39:46.201Z,100193.88
2022-08-31T11:42:12.936Z,100202.25
2022-08-31T11:44:39.875Z,100206.87
2022-08-31T11:47:17.004Z,100202.47
2022-08-31T11:49:56.249Z,100201.94
2022-08-31T11:52:29.413Z,100202.13
2022-08-31T11:55:00.969Z,100194.00
2022-08-31T11:58:06.536Z,100198.56
2022-08-31T12:00:52.761Z,100190.94
2022-08-31T12:03:37.734Z,100197.91
2022-08-31T12:06:08.322Z,100196.97
2022-08-31T12:08:47.017Z,100204.38
2022-08-31T12:11:41.096Z,100201.97
2022-08-31T12:14:56.798Z,100199.69
2022-08-31T12:17:26.424Z,100199.87
2022-08-31T12:20:02.291Z,100195.44
2022-08-31T12:23:31.142Z,100192.34
2022-08-31T12:26:30.448Z,100181.88
2022-08-31T12:28:57.153Z,100183.75
2022-08-31T12:31:24.649Z,100183.66
2022-08-31T12:34:01.840Z,100182.25
2022-08-31T12:36:32.418Z,100183.47
2022-08-31T12:39:34.728Z,100174.31
2022-08-31T12:42:05.907Z,100188.16
2022-08-31T12:44:45.069Z,100187.53
2022-08-31T12:47:54.080Z,100182.41
2022-08-31T12:51:07.934Z,100179.84
2022-08-31T12:53:43.863Z,100177.09
2022-08-31T12:56:32.605Z,100170.91
2022-08-31T12:59:32.668Z,100173.88
2022-08-31T13:02:12.670Z,100161.56
2022-08-31T13:04:45.391Z,100156.09
2022-08-31T13:07:33.377Z,100160.94
2022-08-31T13:10:09.439Z,100153.75
2022-08-31T13:12:36.669Z,100149.28
2022-08-31T13:15:05.087Z,100151.09
2022-08-31T13:17:39.652Z,100154.91
2022-08-31T13:20:07.294Z,100144.16
2022-08-31T13:22:42.925Z,100140.34
2022-08-31T13:25:37.832Z,100142.00
2022-08-31T13:28:14.437Z,100137.66
2022-08-31T13:30:55.138Z,100127.78
2022-08-31T13:33:27.271Z,100130.44
2022-08-31T13:36:05.570Z,100130.69
2022-08-31T13:38:42.534Z,100131.84
2022-08-31T13:41:19.359Z,100132.75
2022-08-31T13:43:52.324Z,100138.47
2022-08-31T13:46:37.652Z,100145.06
2022-08-31T13:49:20.922Z,100136.75
2022-08-31T13:51:47.884Z,100138.63
2022-08-31T13:54:27.729Z,100135.78
2022-08-31T13:56:55.515Z,100137.06
2022-08-31T13:59:24.882Z,100133.00
2022-08-31T14:02:01.928Z,100126.28
2022-08-31T14:04:44.411Z,100133.50
2022-08-31T14:07:17.146Z,100133.84
2022-08-31T14:09:46.152Z,100133.34
2022-08-31T14:12:36.640Z,100130.72
2022-08-31T14:15:20.226Z,100139.66
2022-08-31T14:21:20.594Z,100133.16
2022-08-31T14:24:02.822Z,100133.28
2022-08-31T14:26:37.013Z,100127.63
2022-08-31T14:29:11.046Z,100131.59
2022-08-31T14:31:58.063Z,100128.47
2022-08-31T14:34:32.378Z,100124.22
2022-08-31T14:37:08.841Z,100126.09
2022-08-31T14:39:36.976Z,100127.63
2022-08-31T14:42:08.434Z,100122.72
2022-08-31T14:44:42.396Z,100117.31
2022-08-31T14:47:09.916Z,100122.94
2022-08-31T14:49:37.166Z,100122.03
2022-08-31T14:52:06.497Z,100121.78
2022-08-31T14:54:37.488Z,100118.37
2022-08-31T14:57:20.991Z,100119.91
2022-08-31T14:59:47.977Z,100116.62
2022-08-31T15:02:21.435Z,100115.94
2022-08-31T15:04:51.701Z,100113.41
2022-08-31T15:07:19.838Z,100113.91
2022-08-31T15:09:50.218Z,100112.81
2022-08-31T15:12:18.065Z,100110.06
2022-08-31T15:14:45.302Z,100105.94
2022-08-31T15:17:18.732Z,100107.69
2022-08-31T15:19:46.384Z,100105.34
2022-08-31T15:22:16.021Z,100096.25
2022-08-31T15:24:45.024Z,100099.00
2022-08-31T15:27:14.597Z,100092.53
2022-08-31T15:29:43.577Z,100092.50
2022-08-31T15:32:10.917Z,100097.28
2022-08-31T15:34:38.717Z,100099.16
2022-08-31T15:37:07.647Z,100098.09
2022-08-31T15:39:37.917Z,100094.28
2022-08-31T15:42:10.442Z,100092.97
2022-08-31T15:44:40.716Z,100092.75
2022-08-31T15:47:28.924Z,100093.16
2022-08-31T15:49:57.818Z,100091.84
2022-08-31T15:52:26.887Z,100086.56
2022-08-31T15:54:55.230Z,100091.84
2022-08-31T15:57:24.379Z,100096.47
2022-08-31T15:59:52.106Z,100094.50
2022-08-31T16:02:22.053Z,100094.50
2022-08-31T16:04:51.457Z,100099.25
2022-08-31T16:07:18.185Z,100095.34
2022-08-31T16:09:46.259Z,100098.09
2022-08-31T16:12:15.718Z,100090.97
2022-08-31T16:14:46.759Z,100099.59
2022-08-31T16:17:19.223Z,100101.31
2022-08-31T16:19:47.324Z,100103.75
2022-08-31T16:22:14.680Z,100107.72
2022-08-31T16:24:43.434Z,100107.63
2022-08-31T16:27:16.254Z,100102.94
2022-08-31T16:29:44.476Z,100108.63
2022-08-31T16:32:12.242Z,100113.03
2022-08-31T16:34:40.087Z,100106.78
2022-08-31T16:37:08.641Z,100112.31
2022-08-31T16:39:37.745Z,100107.03
2022-08-31T16:42:06.862Z,100110.22
2022-08-31T16:44:36.612Z,100117.28
2022-08-31T16:47:05.536Z,100112.78
2022-08-31T16:49:41.452Z,100120.22
2022-08-31T16:52:24.386Z,100120.75
2022-08-31T16:54:51.936Z,100110.41
2022-08-31T16:57:23.726Z,100115.84
2022-08-31T16:59:51.458Z,100112.31
2022-08-31T17:02:19.568Z,100115.47
2022-08-31T17:04:54.744Z,100121.72
2022-08-31T17:07:24.473Z,100121.34
2022-08-31T17:09:56.523Z,100115.03
2022-08-31T17:12:26.276Z,100123.78
2022-08-31T17:14:53.340Z,100135.06
2022-08-31T17:17:25.421Z,100127.31
2022-08-31T17:19:54.222Z,100129.56
2022-08-31T17:22:29.924Z,100128.59
2022-08-31T17:25:00.783Z,100125.97
2022-08-31T17:27:27.759Z,100130.56
2022-08-31T17:29:56.382Z,100127.88
2022-08-31T17:32:27.835Z,100132.44
2022-08-31T17:34:56.349Z,100133.62
2022-08-31T17:37:33.042Z,100143.06
2022-08-31T17:40:00.397Z,100140.72
2022-08-31T17:42:28.307Z,100137.41
2022-08-31T17:44:56.773Z,100140.19
2022-08-31T17:47:25.189Z,100141.63
2022-08-31T17:49:52.788Z,100141.06
2022-08-31T17:52:21.951Z,100146.00
2022-08-31T17:54:51.367Z,100151.88
2022-08-31T17:57:22.598Z,100151.88
2022-08-31T17:59:49.602Z,100156.56
2022-08-31T18:02:20.148Z,100160.97
2022-08-31T18:04:47.805Z,100154.38
2022-08-31T18:07:14.959Z,100161.41
2022-08-31T18:09:45.626Z,100169.69
2022-08-31T18:12:14.577Z,100158.41
2022-08-31T18:14:42.071Z,100163.81
2022-08-31T18:17:13.144Z,100165.81
2022-08-31T18:19:40.664Z,100176.94
2022-08-31T18:22:08.097Z,100169.19
2022-08-31T18:24:37.754Z,100181.62
2022-08-31T18:27:07.307Z,100168.97
2022-08-31T18:29:36.618Z,100183.72
2022-08-31T18:32:06.730Z,100189.97
2022-08-31T18:34:36.922Z,100188.72
2022-08-31T18:37:04.470Z,100191.72
2022-08-31T18:39:52.614Z,100197.59
2022-08-31T18:42:39.875Z,100197.50
2022-08-31T18:45:19.567Z,100198.25
2022-08-31T18:50:45.303Z,100207.16
2022-08-31T18:53:15.324Z,100212.12
2022-08-31T18:55:44.456Z,100212.12
2022-08-31T18:58:11.505Z,100215.25
2022-08-31T19:00:40.702Z,100210.16
2022-08-31T19:03:08.227Z,100212.25
2022-08-31T19:05:38.537Z,100212.47
2022-08-31T19:08:05.578Z,100215.47
2022-08-31T19:10:32.627Z,100232.66
2022-08-31T19:13:00.338Z,100230.59
2022-08-31T19:15:33.655Z,100233.87
2022-08-31T19:18:05.620Z,100234.78
2022-08-31T19:20:33.545Z,100233.63
2022-08-31T19:23:00.745Z,100231.81
2022-08-31T19:25:28.157Z,100223.72
2022-08-31T19:27:55.918Z,100229.12
2022-08-31T19:30:27.843Z,100226.87
2022-08-31T19:32:56.704Z,100236.81
2022-08-31T19:35:27.044Z,100245.03
2022-08-31T19:37:56.588Z,100238.81
2022-08-31T19:40:37.877Z,100237.88
2022-08-31T19:45:54.449Z,100231.69
2022-08-31T19:48:23.876Z,100242.09
2022-08-31T19:50:52.548Z,100239.66
2022-08-31T19:53:21.524Z,100238.84
2022-08-31T19:55:51.091Z,100235.97
2022-08-31T19:58:19.764Z,100229.66
2022-08-31T20:00:48.537Z,100241.69
2022-08-31T20:03:16.339Z,100236.91
2022-08-31T20:05:43.763Z,100238.31
2022-08-31T20:08:11.977Z,100246.78
2022-08-31T20:10:43.480Z,100250.59
2022-08-31T20:13:12.506Z,100247.06
2022-08-31T20:15:41.744Z,100240.00
2022-08-31T20:18:11.395Z,100238.47
2022-08-31T20:20:45.495Z,100240.37
2022-08-31T20:23:17.221Z,100235.78
2022-08-31T20:25:46.068Z,100236.84
2022-08-31T20:28:13.811Z,100242.09
2022-08-31T20:30:42.701Z,100240.28
2022-08-31T20:33:11.344Z,100242.78
2022-08-31T20:35:47.720Z,100242.66
2022-08-31T20:38:16.340Z,100244.44
2022-08-31T20:40:45.252Z,100254.00
2022-08-31T20:43:13.973Z,100248.16
2022-08-31T20:45:42.618Z,100261.50
2022-08-31T20:48:28.491Z,100279.47
2022-08-31T20:50:56.347Z,100288.88
2022-08-31T20:53:42.889Z,100299.84
2022-08-31T20:56:17.466Z,100312.06
2022-08-31T20:58:46.323Z,100320.69
2022-08-31T21:01:14.313Z,100325.53
2022-08-31T21:03:41.773Z,100321.09
2022-08-31T21:06:13.930Z,100319.75
2022-08-31T21:08:42.692Z,100324.72
2022-08-31T21:11:18.250Z,100332.75
2022-08-31T21:13:47.053Z,100337.16
2022-08-31T21:16:14.951Z,100334.56
2022-08-31T21:18:41.931Z,100352.63
2022-08-31T21:21:15.414Z,100352.75
2022-08-31T21:23:42.676Z,100346.00
2022-08-31T21:26:15.005Z,100346.34
2022-08-31T21:28:43.933Z,100362.59
2022-08-31T21:31:14.017Z,100359.56
2022-08-31T21:33:46.601Z,100356.09
2022-08-31T21:36:15.687Z,100367.69
2022-08-31T21:38:43.753Z,100382.84
2022-08-31T21:41:13.253Z,100382.19
2022-08-31T21:43:40.788Z,100384.53
2022-08-31T21:46:10.432Z,100383.56
2022-08-31T21:48:39.011Z,100386.31
2022-08-31T21:51:22.430Z,100377.78
2022-08-31T21:53:51.908Z,100382.91
2022-08-31T21:56:20.481Z,100385.84
2022-08-31T21:58:48.000Z,100379.69
2022-08-31T22:01:18.650Z,100394.75
2022-08-31T22:03:47.516Z,100388.19
2022-08-31T22:06:26.906Z,100383.63
2022-08-31T22:08:55.321Z,100391.56
2022-08-31T22:11:24.549Z,100394.84
2022-08-31T22:13:55.132Z,100380.69
2022-08-31T22:16:22.047Z,100386.47
2022-08-31T22:19:07.278Z,100383.91
2022-08-31T22:21:35.456Z,100378.03
2022-08-31T22:24:06.601Z,100377.75
2022-08-31T22:26:39.109Z,100375.78
2022-08-31T22:29:07.225Z,100378.12
2022-08-31T22:31:39.061Z,100386.41
2022-08-31T22:34:07.854Z,100388.50
2022-08-31T22:36:35.396Z,100405.66
2022-08-31T22:39:06.520Z,100408.44
2022-08-31T22:41:37.475Z,100403.72
2022-08-31T22:44:06.546Z,100401.94
2022-08-31T22:46:34.667Z,100402.72
2022-08-31T22:49:02.189Z,100398.25
2022-08-31T22:51:29.223Z,100402.69
2022-08-31T22:53:56.021Z,100403.03
2022-08-31T22:56:28.610Z,100405.53
2022-08-31T22:59:00.177Z,100402.53
2022-08-31T23:01:34.197Z,100394.66
2022-08-31T23:04:06.876Z,100389.00
2022-08-31T23:06:36.130Z,100390.69
2022-08-31T23:09:05.958Z,100389.81
2022-08-31T23:11:32.787Z,100388.66
2022-08-31T23:14:01.906Z,100395.16
2022-08-31T23:16:38.085Z,100404.56
2022-08-31T23:19:12.524Z,100396.47
2022-08-31T23:21:52.977Z,100406.13
2022-08-31T23:24:29.100Z,100403.37
2022-08-31T23:27:01.638Z,100402.75
2022-08-31T23:29:31.199Z,100393.81
2022-08-31T23:31:59.680Z,100388.50
2022-08-31T23:34:26.541Z,100385.19
2022-08-31T23:36:54.154Z,100390.88
2022-08-31T23:39:23.916Z,100395.09
2022-08-31T23:41:51.159Z,100397.09
2022-08-31T23:44:20.729Z,100394.59
2022-08-31T23:46:48.134Z,100397.13
2022-08-31T23:49:18.455Z,100393.47
2022-08-31T23:51:45.634Z,100388.59
2022-08-31T23:54:14.151Z,100387.47
2022-08-31T23:56:43.149Z,100403.97
2022-08-31T23:59:19.013Z,100405.19
